sensor_id;sensor_type;location;lat;lon;timestamp;pressure;altitude;pressure_sealevel;temperature;humidity
6530;BME280;3298;42.688;23.366;2023-02-28T00:01:30;52196.06;;;-145.06;100.00
6530;BME280;3298;42.688;23.366;2023-02-28T00:03:57;52134.66;;;-145.06;100.00
6530;BME280;3298;42.688;23.366;2023-02-28T00:06:25;52114.16;;;-145.06;100.00
6530;BME280;3298;42.688;23.366;2023-02-28T00:08:52;52151.03;;;-145.06;100.00
6530;BME280;3298;42.688;23.366;2023-02-28T00:11:18;52126.44;;;-145.06;100.00
6530;BME280;3298;42.688;23.366;2023-02-28T00:13:46;52153.06;;;-145.06;100.00
6530;BME280;3298;42.688;23.366;2023-02-28T00:16:15;52155.13;;;-145.06;100.00
6530;BME280;3298;42.688;23.366;2023-02-28T00:18:45;52144.88;;;-145.06;100.00
6530;BME280;3298;42.688;23.366;2023-02-28T00:21:13;52167.41;;;-145.06;100.00
6530;BME280;3298;42.688;23.366;2023-02-28T00:23:39;52177.63;;;-145.06;100.00
6530;BME280;3298;42.688;23.366;2023-02-28T00:26:06;52163.31;;;-145.06;100.00
6530;BME280;3298;42.688;23.366;2023-02-28T00:28:33;52130.56;;;-145.06;100.00
6530;BME280;3298;42.688;23.366;2023-02-28T00:31:00;52134.66;;;-145.06;100.00
6530;BME280;3298;42.688;23.366;2023-02-28T00:33:27;52144.88;;;-145.06;100.00
6530;BME280;3298;42.688;23.366;2023-02-28T00:36:05;52065.03;;;-145.06;100.00
6530;BME280;3298;42.688;23.366;2023-02-28T00:38:33;52120.31;;;-145.06;100.00
6530;BME280;3298;42.688;23.366;2023-02-28T00:41:00;52056.84;;;-145.06;100.00
6530;BME280;3298;42.688;23.366;2023-02-28T00:43:30;52050.72;;;-145.06;100.00
6530;BME280;3298;42.688;23.366;2023-02-28T00:45:57;52130.56;;;-145.06;100.00
6530;BME280;3298;42.688;23.366;2023-02-28T00:48:24;52153.06;;;-145.06;100.00
6530;BME280;3298;42.688;23.366;2023-02-28T00:50:51;52075.28;;;-145.06;100.00
6530;BME280;3298;42.688;23.366;2023-02-28T00:53:19;52077.31;;;-145.06;100.00
6530;BME280;3298;42.688;23.366;2023-02-28T00:55:47;52105.97;;;-145.06;100.00
6530;BME280;3298;42.688;23.366;2023-02-28T00:58:14;52091.66;;;-145.06;100.00
6530;BME280;3298;42.688;23.366;2023-02-28T01:00:41;52134.66;;;-145.06;100.00
6530;BME280;3298;42.688;23.366;2023-02-28T01:03:07;52114.16;;;-145.06;100.00
6530;BME280;3298;42.688;23.366;2023-02-28T01:05:34;52122.34;;;-145.06;100.00
6530;BME280;3298;42.688;23.366;2023-02-28T01:08:01;52101.88;;;-145.06;100.00
6530;BME280;3298;42.688;23.366;2023-02-28T01:10:29;52105.97;;;-145.06;100.00
6530;BME280;3298;42.688;23.366;2023-02-28T01:12:57;52091.66;;;-145.06;100.00
6530;BME280;3298;42.688;23.366;2023-02-28T01:15:24;52134.66;;;-145.06;100.00
6530;BME280;3298;42.688;23.366;2023-02-28T01:17:50;52099.84;;;-145.06;100.00
6530;BME280;3298;42.688;23.366;2023-02-28T01:20:17;52073.22;;;-145.06;100.00
6530;BME280;3298;42.688;23.366;2023-02-28T01:22:44;52134.66;;;-145.06;100.00
6530;BME280;3298;42.688;23.366;2023-02-28T01:25:12;52142.84;;;-145.06;100.00
6530;BME280;3298;42.688;23.366;2023-02-28T01:27:40;52153.06;;;-145.06;100.00
6530;BME280;3298;42.688;23.366;2023-02-28T01:30:08;52175.59;;;-145.06;100.00
6530;BME280;3298;42.688;23.366;2023-02-28T01:32:35;52146.94;;;-145.06;100.00
6530;BME280;3298;42.688;23.366;2023-02-28T01:35:02;52179.69;;;-145.06;100.00
6530;BME280;3298;42.688;23.366;2023-02-28T01:37:29;52187.88;;;-145.06;100.00
6530;BME280;3298;42.688;23.366;2023-02-28T01:39:56;52165.34;;;-145.06;100.00
6530;BME280;3298;42.688;23.366;2023-02-28T01:42:22;52191.97;;;-145.06;100.00
6530;BME280;3298;42.688;23.366;2023-02-28T01:45:04;52169.44;;;-145.06;100.00
6530;BME280;3298;42.688;23.366;2023-02-28T01:47:35;52194.00;;;-145.06;100.00
6530;BME280;3298;42.688;23.366;2023-02-28T01:50:06;52185.81;;;-145.06;100.00
6530;BME280;3298;42.688;23.366;2023-02-28T01:52:34;52155.13;;;-145.06;100.00
6530;BME280;3298;42.688;23.366;2023-02-28T01:55:02;52155.13;;;-145.06;100.00
6530;BME280;3298;42.688;23.366;2023-02-28T01:57:34;52151.03;;;-145.06;100.00
6530;BME280;3298;42.688;23.366;2023-02-28T02:00:08;52153.06;;;-145.06;100.00
6530;BME280;3298;42.688;23.366;2023-02-28T02:02:36;52151.03;;;-145.06;100.00
6530;BME280;3298;42.688;23.366;2023-02-28T02:05:06;52155.13;;;-145.06;100.00
6530;BME280;3298;42.688;23.366;2023-02-28T02:07:35;52146.94;;;-145.06;100.00
6530;BME280;3298;42.688;23.366;2023-02-28T02:10:10;52181.72;;;-145.06;100.00
6530;BME280;3298;42.688;23.366;2023-02-28T02:13:05;52183.78;;;-145.06;100.00
6530;BME280;3298;42.688;23.366;2023-02-28T02:15:41;52202.19;;;-145.06;100.00
6530;BME280;3298;42.688;23.366;2023-02-28T02:18:16;52208.34;;;-145.06;100.00
6530;BME280;3298;42.688;23.366;2023-02-28T02:21:16;52247.22;;;-145.06;100.00
6530;BME280;3298;42.688;23.366;2023-02-28T02:27:16;52230.84;;;-145.06;100.00
6530;BME280;3298;42.688;23.366;2023-02-28T02:30:08;52222.66;;;-145.06;100.00
6530;BME280;3298;42.688;23.366;2023-02-28T02:33:03;52228.81;;;-145.06;100.00
6530;BME280;3298;42.688;23.366;2023-02-28T02:35:38;52189.91;;;-145.06;100.00
6530;BME280;3298;42.688;23.366;2023-02-28T02:38:10;52204.25;;;-145.06;100.00
6530;BME280;3298;42.688;23.366;2023-02-28T02:40:44;52196.06;;;-145.06;100.00
6530;BME280;3298;42.688;23.366;2023-02-28T02:43:16;52372.09;;;-145.06;100.00
6530;BME280;3298;42.688;23.366;2023-02-28T02:45:46;52097.78;;;-145.06;100.00
6530;BME280;3298;42.688;23.366;2023-02-28T02:48:18;52175.59;;;-145.06;100.00
6530;BME280;3298;42.688;23.366;2023-02-28T02:50:52;52151.03;;;-145.06;100.00
6530;BME280;3298;42.688;23.366;2023-02-28T02:53:26;52151.03;;;-145.06;100.00
6530;BME280;3298;42.688;23.366;2023-02-28T02:55:55;52179.69;;;-145.06;100.00
6530;BME280;3298;42.688;23.366;2023-02-28T02:58:26;52153.06;;;-145.06;100.00
6530;BME280;3298;42.688;23.366;2023-02-28T03:00:58;52208.34;;;-145.06;100.00
6530;BME280;3298;42.688;23.366;2023-02-28T03:03:27;52187.88;;;-145.06;100.00
6530;BME280;3298;42.688;23.366;2023-02-28T03:05:57;52191.97;;;-145.06;100.00
6530;BME280;3298;42.688;23.366;2023-02-28T03:08:25;52179.69;;;-145.06;100.00
6530;BME280;3298;42.688;23.366;2023-02-28T03:10:56;52120.31;;;-145.06;100.00
6530;BME280;3298;42.688;23.366;2023-02-28T03:13:50;52130.56;;;-145.06;100.00
6530;BME280;3298;42.688;23.366;2023-02-28T03:16:36;52200.16;;;-145.06;100.00
6530;BME280;3298;42.688;23.366;2023-02-28T03:19:26;52151.03;;;-145.06;100.00
6530;BME280;3298;42.688;23.366;2023-02-28T03:22:07;52175.59;;;-145.06;100.00
6530;BME280;3298;42.688;23.366;2023-02-28T03:24:41;52124.41;;;-145.06;100.00
6530;BME280;3298;42.688;23.366;2023-02-28T03:27:15;52142.84;;;-145.06;100.00
6530;BME280;3298;42.688;23.366;2023-02-28T03:29:46;52134.66;;;-145.06;100.00
6530;BME280;3298;42.688;23.366;2023-02-28T03:32:17;52175.59;;;-145.06;100.00
6530;BME280;3298;42.688;23.366;2023-02-28T03:34:50;52171.50;;;-145.06;100.00
6530;BME280;3298;42.688;23.366;2023-02-28T03:37:23;52114.16;;;-145.06;100.00
6530;BME280;3298;42.688;23.366;2023-02-28T03:39:54;52110.06;;;-145.06;100.00
6530;BME280;3298;42.688;23.366;2023-02-28T03:42:25;52148.97;;;-145.06;100.00
6530;BME280;3298;42.688;23.366;2023-02-28T03:44:57;52198.09;;;-145.06;100.00
6530;BME280;3298;42.688;23.366;2023-02-28T03:47:28;52187.88;;;-145.06;100.00
6530;BME280;3298;42.688;23.366;2023-02-28T03:49:59;52148.97;;;-145.06;100.00
6530;BME280;3298;42.688;23.366;2023-02-28T03:52:31;52161.25;;;-145.06;100.00
6530;BME280;3298;42.688;23.366;2023-02-28T03:55:01;52224.72;;;-145.06;100.00
6530;BME280;3298;42.688;23.366;2023-02-28T03:57:34;52210.38;;;-145.06;100.00
6530;BME280;3298;42.688;23.366;2023-02-28T04:00:06;52251.31;;;-145.06;100.00
6530;BME280;3298;42.688;23.366;2023-02-28T04:02:35;52249.28;;;-145.06;100.00
6530;BME280;3298;42.688;23.366;2023-02-28T04:05:02;52271.78;;;-145.06;100.00
6530;BME280;3298;42.688;23.366;2023-02-28T04:07:30;52275.88;;;-145.06;100.00
6530;BME280;3298;42.688;23.366;2023-02-28T04:09:57;52310.69;;;-145.06;100.00
6530;BME280;3298;42.688;23.366;2023-02-28T04:12:25;52263.59;;;-145.06;100.00
6530;BME280;3298;42.688;23.366;2023-02-28T04:14:51;52302.50;;;-145.06;100.00
6530;BME280;3298;42.688;23.366;2023-02-28T04:17:18;52335.25;;;-145.06;100.00
6530;BME280;3298;42.688;23.366;2023-02-28T04:19:45;52331.16;;;-145.06;100.00
6530;BME280;3298;42.688;23.366;2023-02-28T04:22:12;52351.63;;;-145.06;100.00
6530;BME280;3298;42.688;23.366;2023-02-28T04:24:40;52415.09;;;-145.06;100.00
6530;BME280;3298;42.688;23.366;2023-02-28T04:27:08;52480.59;;;-145.06;100.00
6530;BME280;3298;42.688;23.366;2023-02-28T04:29:35;52402.81;;;-145.06;100.00
6530;BME280;3298;42.688;23.366;2023-02-28T04:32:03;52384.38;;;-145.06;100.00
6530;BME280;3298;42.688;23.366;2023-02-28T04:34:31;52402.81;;;-145.06;100.00
6530;BME280;3298;42.688;23.366;2023-02-28T04:36:58;52402.81;;;-145.06;100.00
6530;BME280;3298;42.688;23.366;2023-02-28T04:39:25;52292.25;;;-145.06;100.00
6530;BME280;3298;42.688;23.366;2023-02-28T04:41:54;52302.50;;;-145.06;100.00
6530;BME280;3298;42.688;23.366;2023-02-28T04:44:21;52275.88;;;-145.06;100.00
6530;BME280;3298;42.688;23.366;2023-02-28T04:46:48;52263.59;;;-145.06;100.00
6530;BME280;3298;42.688;23.366;2023-02-28T04:49:15;52263.59;;;-145.06;100.00
6530;BME280;3298;42.688;23.366;2023-02-28T04:51:42;52290.22;;;-145.06;100.00
6530;BME280;3298;42.688;23.366;2023-02-28T04:54:09;52298.41;;;-145.06;100.00
6530;BME280;3298;42.688;23.366;2023-02-28T04:56:37;52261.56;;;-145.06;100.00
6530;BME280;3298;42.688;23.366;2023-02-28T04:59:05;52288.16;;;-145.06;100.00
6530;BME280;3298;42.688;23.366;2023-02-28T05:01:33;52343.44;;;-145.06;100.00
6530;BME280;3298;42.688;23.366;2023-02-28T05:04:03;52282.03;;;-145.06;100.00
6530;BME280;3298;42.688;23.366;2023-02-28T05:06:32;52339.34;;;-145.06;100.00
6530;BME280;3298;42.688;23.366;2023-02-28T05:08:59;52331.16;;;-145.06;100.00
6530;BME280;3298;42.688;23.366;2023-02-28T05:11:28;52261.56;;;-145.06;100.00
6530;BME280;3298;42.688;23.366;2023-02-28T05:13:59;52275.88;;;-145.06;100.00
6530;BME280;3298;42.688;23.366;2023-02-28T05:16:27;52351.63;;;-145.06;100.00
6530;BME280;3298;42.688;23.366;2023-02-28T05:18:54;52347.53;;;-145.06;100.00
6530;BME280;3298;42.688;23.366;2023-02-28T05:21:25;52318.88;;;-145.06;100.00
6530;BME280;3298;42.688;23.366;2023-02-28T05:23:52;52306.59;;;-145.06;100.00
6530;BME280;3298;42.688;23.366;2023-02-28T05:26:20;52335.25;;;-145.06;100.00
6530;BME280;3298;42.688;23.366;2023-02-28T05:28:46;52363.91;;;-145.06;100.00
6530;BME280;3298;42.688;23.366;2023-02-28T05:31:13;52343.44;;;-145.06;100.00
6530;BME280;3298;42.688;23.366;2023-02-28T05:33:42;52327.06;;;-145.06;100.00
6530;BME280;3298;42.688;23.366;2023-02-28T05:36:08;52286.13;;;-145.06;100.00
6530;BME280;3298;42.688;23.366;2023-02-28T05:38:35;52302.50;;;-145.06;100.00
6530;BME280;3298;42.688;23.366;2023-02-28T05:41:05;52284.06;;;-145.06;100.00
6530;BME280;3298;42.688;23.366;2023-02-28T05:43:32;52318.88;;;-145.06;100.00
6530;BME280;3298;42.688;23.366;2023-02-28T05:45:59;52251.31;;;-145.06;100.00
6530;BME280;3298;42.688;23.366;2023-02-28T05:48:26;52259.50;;;-145.06;100.00
6530;BME280;3298;42.688;23.366;2023-02-28T05:50:54;52327.06;;;-145.06;100.00
6530;BME280;3298;42.688;23.366;2023-02-28T05:53:20;52296.34;;;-145.06;100.00
6530;BME280;3298;42.688;23.366;2023-02-28T05:55:47;52316.81;;;-145.06;100.00
6530;BME280;3298;42.688;23.366;2023-02-28T05:58:14;52363.91;;;-145.06;100.00
6530;BME280;3298;42.688;23.366;2023-02-28T06:00:41;52310.69;;;-145.06;100.00
6530;BME280;3298;42.688;23.366;2023-02-28T06:03:07;52351.63;;;-145.06;100.00
6530;BME280;3298;42.688;23.366;2023-02-28T06:05:34;52320.91;;;-145.06;100.00
6530;BME280;3298;42.688;23.366;2023-02-28T06:08:03;52288.16;;;-145.06;100.00
6530;BME280;3298;42.688;23.366;2023-02-28T06:10:31;52275.88;;;-145.06;100.00
6530;BME280;3298;42.688;23.366;2023-02-28T06:12:59;52304.53;;;-145.06;100.00
6530;BME280;3298;42.688;23.366;2023-02-28T06:15:28;52273.84;;;-145.06;100.00
6530;BME280;3298;42.688;23.366;2023-02-28T06:17:55;52237.00;;;-145.06;100.00
6530;BME280;3298;42.688;23.366;2023-02-28T06:20:23;52232.91;;;-145.06;100.00
6530;BME280;3298;42.688;23.366;2023-02-28T06:22:50;52210.38;;;-145.06;100.00
6530;BME280;3298;42.688;23.366;2023-02-28T06:25:18;52218.56;;;-145.06;100.00
6530;BME280;3298;42.688;23.366;2023-02-28T06:27:45;52239.03;;;-145.06;100.00
6530;BME280;3298;42.688;23.366;2023-02-28T06:30:13;52249.28;;;-145.06;100.00
6530;BME280;3298;42.688;23.366;2023-02-28T06:32:40;52224.72;;;-145.06;100.00
6530;BME280;3298;42.688;23.366;2023-02-28T06:35:07;52222.66;;;-145.06;100.00
6530;BME280;3298;42.688;23.366;2023-02-28T06:37:34;52257.47;;;-145.06;100.00
6530;BME280;3298;42.688;23.366;2023-02-28T06:40:01;52245.19;;;-145.06;100.00
6530;BME280;3298;42.688;23.366;2023-02-28T06:42:30;52241.09;;;-145.06;100.00
6530;BME280;3298;42.688;23.366;2023-02-28T06:44:57;52146.94;;;-145.06;100.00
6530;BME280;3298;42.688;23.366;2023-02-28T06:47:25;52214.47;;;-145.06;100.00
6530;BME280;3298;42.688;23.366;2023-02-28T06:49:52;52120.31;;;-145.06;100.00
6530;BME280;3298;42.688;23.366;2023-02-28T06:52:18;52148.97;;;-145.06;100.00
6530;BME280;3298;42.688;23.366;2023-02-28T06:54:45;52054.81;;;-145.06;100.00
6530;BME280;3298;42.688;23.366;2023-02-28T06:57:12;52108.03;;;-145.06;100.00
6530;BME280;3298;42.688;23.366;2023-02-28T06:59:40;52105.97;;;-145.06;100.00
6530;BME280;3298;42.688;23.366;2023-02-28T07:02:08;52085.50;;;-145.06;100.00
6530;BME280;3298;42.688;23.366;2023-02-28T07:04:34;52110.06;;;-145.06;100.00
6530;BME280;3298;42.688;23.366;2023-02-28T07:07:01;52089.59;;;-145.06;100.00
6530;BME280;3298;42.688;23.366;2023-02-28T07:09:28;52134.66;;;-145.06;100.00
6530;BME280;3298;42.688;23.366;2023-02-28T07:11:55;52105.97;;;-145.06;100.00
6530;BME280;3298;42.688;23.366;2023-02-28T07:14:22;52103.94;;;-145.06;100.00
6530;BME280;3298;42.688;23.366;2023-02-28T07:16:50;52110.06;;;-145.06;100.00
6530;BME280;3298;42.688;23.366;2023-02-28T07:19:17;52148.97;;;-145.06;100.00
6530;BME280;3298;42.688;23.366;2023-02-28T07:21:43;52153.06;;;-145.06;100.00
6530;BME280;3298;42.688;23.366;2023-02-28T07:24:10;52114.16;;;-145.06;100.00
6530;BME280;3298;42.688;23.366;2023-02-28T07:26:37;52126.44;;;-145.06;100.00
6530;BME280;3298;42.688;23.366;2023-02-28T07:29:04;52136.69;;;-145.06;100.00
6530;BME280;3298;42.688;23.366;2023-02-28T07:31:30;52105.97;;;-145.06;100.00
6530;BME280;3298;42.688;23.366;2023-02-28T07:33:59;52081.41;;;-145.06;100.00
6530;BME280;3298;42.688;23.366;2023-02-28T07:36:25;52052.75;;;-145.06;100.00
6530;BME280;3298;42.688;23.366;2023-02-28T07:38:52;52083.47;;;-145.06;100.00
6530;BME280;3298;42.688;23.366;2023-02-28T07:41:21;52052.75;;;-145.06;99.85
6530;BME280;3298;42.688;23.366;2023-02-28T07:43:52;52060.94;;;-145.06;99.77
6530;BME280;3298;42.688;23.366;2023-02-28T07:46:19;52075.28;;;-145.06;99.85
6530;BME280;3298;42.688;23.366;2023-02-28T07:48:46;52052.75;;;-145.06;100.00
6530;BME280;3298;42.688;23.366;2023-02-28T07:51:14;52044.56;;;-145.06;100.00
6530;BME280;3298;42.688;23.366;2023-02-28T07:53:41;52071.19;;;-145.06;100.00
6530;BME280;3298;42.688;23.366;2023-02-28T07:56:08;52067.09;;;-145.06;100.00
6530;BME280;3298;42.688;23.366;2023-02-28T07:58:36;52063.00;;;-145.06;100.00
6530;BME280;3298;42.688;23.366;2023-02-28T08:01:06;52085.50;;;-145.06;100.00
6530;BME280;3298;42.688;23.366;2023-02-28T08:03:34;52052.75;;;-145.06;99.42
6530;BME280;3298;42.688;23.366;2023-02-28T08:06:01;52024.09;;;-145.06;97.86
6530;BME280;3298;42.688;23.366;2023-02-28T08:08:30;51995.44;;;-145.06;95.74
6530;BME280;3298;42.688;23.366;2023-02-28T08:10:58;51991.34;;;-145.06;95.69
6530;BME280;3298;42.688;23.366;2023-02-28T08:13:26;51983.16;;;-145.06;97.15
6530;BME280;3298;42.688;23.366;2023-02-28T08:15:53;52020.00;;;-145.06;95.91
6530;BME280;3298;42.688;23.366;2023-02-28T08:18:21;52007.72;;;-145.06;93.84
6530;BME280;3298;42.688;23.366;2023-02-28T08:20:48;51966.78;;;-145.06;92.84
6530;BME280;3298;42.688;23.366;2023-02-28T08:23:15;51987.25;;;-145.06;92.19
6530;BME280;3298;42.688;23.366;2023-02-28T08:25:44;51956.56;;;-145.06;89.92
6530;BME280;3298;42.688;23.366;2023-02-28T08:28:11;51929.94;;;-145.06;89.95
6530;BME280;3298;42.688;23.366;2023-02-28T08:30:37;51966.78;;;-145.06;91.13
6530;BME280;3298;42.688;23.366;2023-02-28T08:33:06;51987.25;;;-145.06;92.50
6530;BME280;3298;42.688;23.366;2023-02-28T08:35:35;51989.31;;;-145.06;92.03
6530;BME280;3298;42.688;23.366;2023-02-28T08:38:02;51987.25;;;-145.06;91.80
6530;BME280;3298;42.688;23.366;2023-02-28T08:40:29;51991.34;;;-145.06;92.54
6530;BME280;3298;42.688;23.366;2023-02-28T08:42:57;51962.69;;;-145.06;91.18
6530;BME280;3298;42.688;23.366;2023-02-28T08:45:25;51987.25;;;-145.06;90.31
6530;BME280;3298;42.688;23.366;2023-02-28T08:47:53;51972.94;;;-145.06;89.45
6530;BME280;3298;42.688;23.366;2023-02-28T08:50:20;51946.31;;;-145.06;90.08
6530;BME280;3298;42.688;23.366;2023-02-28T08:52:47;51977.03;;;-145.06;89.58
6530;BME280;3298;42.688;23.366;2023-02-28T08:55:14;51962.69;;;-145.06;91.21
6530;BME280;3298;42.688;23.366;2023-02-28T08:57:41;51981.13;;;-145.06;92.84
6530;BME280;3298;42.688;23.366;2023-02-28T09:00:10;52007.72;;;-145.06;94.01
6530;BME280;3298;42.688;23.366;2023-02-28T09:02:39;51991.34;;;-145.06;92.87
6530;BME280;3298;42.688;23.366;2023-02-28T09:05:07;51950.41;;;-145.06;89.41
6530;BME280;3298;42.688;23.366;2023-02-28T09:07:34;51974.97;;;-145.06;91.71
6530;BME280;3298;42.688;23.366;2023-02-28T09:10:01;51977.03;;;-145.06;92.98
6530;BME280;3298;42.688;23.366;2023-02-28T09:12:32;51966.78;;;-145.06;92.17
6530;BME280;3298;42.688;23.366;2023-02-28T09:14:59;51987.25;;;-145.06;91.46
6530;BME280;3298;42.688;23.366;2023-02-28T09:17:27;52032.28;;;-145.06;90.97
6530;BME280;3298;42.688;23.366;2023-02-28T09:19:54;51950.41;;;-145.06;90.23
6530;BME280;3298;42.688;23.366;2023-02-28T09:22:21;51966.78;;;-145.06;89.77
6530;BME280;3298;42.688;23.366;2023-02-28T09:24:47;51946.31;;;-145.06;89.04
6530;BME280;3298;42.688;23.366;2023-02-28T09:27:14;51952.47;;;-145.06;87.54
6530;BME280;3298;42.688;23.366;2023-02-28T09:29:41;51946.31;;;-145.06;87.57
6530;BME280;3298;42.688;23.366;2023-02-28T09:32:08;51921.75;;;-145.06;86.26
6530;BME280;3298;42.688;23.366;2023-02-28T09:34:36;51899.25;;;-145.06;84.98
6530;BME280;3298;42.688;23.366;2023-02-28T09:37:04;51913.56;;;-145.06;84.69
6530;BME280;3298;42.688;23.366;2023-02-28T09:39:30;51909.47;;;-145.06;84.49
6530;BME280;3298;42.688;23.366;2023-02-28T09:41:57;51874.69;;;-145.06;84.98
6530;BME280;3298;42.688;23.366;2023-02-28T09:44:28;51905.38;;;-145.06;84.23
6530;BME280;3298;42.688;23.366;2023-02-28T09:46:59;51905.38;;;-145.06;85.27
6530;BME280;3298;42.688;23.366;2023-02-28T09:49:33;51886.97;;;-145.06;82.14
6530;BME280;3298;42.688;23.366;2023-02-28T09:52:05;51876.75;;;-145.06;81.62
6530;BME280;3298;42.688;23.366;2023-02-28T09:54:35;51848.09;;;-145.06;79.11
6530;BME280;3298;42.688;23.366;2023-02-28T09:57:07;51846.03;;;-145.06;77.38
6530;BME280;3298;42.688;23.366;2023-02-28T09:59:44;51860.38;;;-145.06;77.12
6530;BME280;3298;42.688;23.366;2023-02-28T10:02:33;51856.28;;;-145.06;78.24
6530;BME280;3298;42.688;23.366;2023-02-28T10:05:11;51841.94;;;-145.06;77.89
6530;BME280;3298;42.688;23.366;2023-02-28T10:07:53;51852.19;;;-145.06;78.42
6530;BME280;3298;42.688;23.366;2023-02-28T10:10:27;51848.09;;;-145.06;77.08
6530;BME280;3298;42.688;23.366;2023-02-28T10:12:59;51811.25;;;-145.06;76.99
6530;BME280;3298;42.688;23.366;2023-02-28T10:15:30;51823.53;;;-145.06;76.40
6530;BME280;3298;42.688;23.366;2023-02-28T10:18:00;51813.28;;;-145.06;74.11
6530;BME280;3298;42.688;23.366;2023-02-28T10:20:31;51801.00;;;-145.06;72.47
6530;BME280;3298;42.688;23.366;2023-02-28T10:23:04;51819.44;;;-145.06;72.95
6530;BME280;3298;42.688;23.366;2023-02-28T10:25:37;51825.56;;;-145.06;71.04
6530;BME280;3298;42.688;23.366;2023-02-28T10:28:12;51833.75;;;-145.06;70.80
6530;BME280;3298;42.688;23.366;2023-02-28T10:30:43;51805.09;;;-145.06;67.71
6530;BME280;3298;42.688;23.366;2023-02-28T10:33:18;51782.59;;;-145.06;69.16
6530;BME280;3298;42.688;23.366;2023-02-28T10:35:46;51788.72;;;-145.06;68.42
6530;BME280;3298;42.688;23.366;2023-02-28T10:38:17;51798.97;;;-145.06;68.09
6530;BME280;3298;42.688;23.366;2023-02-28T10:40:44;51776.44;;;-145.06;69.30
6530;BME280;3298;42.688;23.366;2023-02-28T10:43:22;51774.41;;;-145.06;67.84
6530;BME280;3298;42.688;23.366;2023-02-28T10:45:55;51792.81;;;-145.06;67.67
6530;BME280;3298;42.688;23.366;2023-02-28T10:48:29;51794.88;;;-145.06;68.29
6530;BME280;3298;42.688;23.366;2023-02-28T10:50:56;51778.50;;;-145.06;66.80
6530;BME280;3298;42.688;23.366;2023-02-28T10:53:45;51790.78;;;-145.06;68.65
6530;BME280;3298;42.688;23.366;2023-02-28T10:56:16;51794.88;;;-145.06;69.70
6530;BME280;3298;42.688;23.366;2023-02-28T10:58:54;51807.16;;;-145.06;69.39
6530;BME280;3298;42.688;23.366;2023-02-28T11:01:23;51778.50;;;-145.06;70.99
6530;BME280;3298;42.688;23.366;2023-02-28T11:03:51;51792.81;;;-145.06;69.72
6530;BME280;3298;42.688;23.366;2023-02-28T11:06:20;51794.88;;;-145.06;69.54
6530;BME280;3298;42.688;23.366;2023-02-28T11:08:53;51792.81;;;-145.06;69.75
6530;BME280;3298;42.688;23.366;2023-02-28T11:11:22;51770.31;;;-145.06;68.23
6530;BME280;3298;42.688;23.366;2023-02-28T11:13:53;51803.06;;;-145.06;63.76
6530;BME280;3298;42.688;23.366;2023-02-28T11:16:21;51760.06;;;-145.06;60.44
6530;BME280;3298;42.688;23.366;2023-02-28T11:18:51;51770.31;;;-145.06;62.64
6530;BME280;3298;42.688;23.366;2023-02-28T11:21:24;51627.03;;;-145.06;56.85
6530;BME280;3298;42.688;23.366;2023-02-28T11:24:02;51692.53;;;-145.06;57.08
6530;BME280;3298;42.688;23.366;2023-02-28T11:26:39;51782.59;;;-145.06;58.93
6530;BME280;3298;42.688;23.366;2023-02-28T11:29:17;51616.81;;;-145.06;51.39
6530;BME280;3298;42.688;23.366;2023-02-28T11:32:01;51643.41;;;-145.06;50.13
6530;BME280;3298;42.688;23.366;2023-02-28T11:34:28;51690.47;;;-145.06;50.83
6530;BME280;3298;42.688;23.366;2023-02-28T11:36:57;51758.03;;;-145.06;52.21
6530;BME280;3298;42.688;23.366;2023-02-28T11:39:26;51690.47;;;-145.06;52.59
6530;BME280;3298;42.688;23.366;2023-02-28T11:45:18;51700.72;;;-145.06;60.35
6530;BME280;3298;42.688;23.366;2023-02-28T11:47:48;51733.47;;;-145.06;62.85
6530;BME280;3298;42.688;23.366;2023-02-28T11:50:39;51723.22;;;-145.06;61.40
6530;BME280;3298;42.688;23.366;2023-02-28T11:53:16;51627.03;;;-145.06;56.78
6530;BME280;3298;42.688;23.366;2023-02-28T11:55:49;51776.44;;;-145.06;58.37
6530;BME280;3298;42.688;23.366;2023-02-28T11:58:28;51780.53;;;-145.06;60.22
6530;BME280;3298;42.688;23.366;2023-02-28T12:01:15;51753.94;;;-145.06;61.02
6530;BME280;3298;42.688;23.366;2023-02-28T12:03:55;51772.34;;;-145.06;59.73
6530;BME280;3298;42.688;23.366;2023-02-28T12:06:28;51762.13;;;-145.06;61.44
6530;BME280;3298;42.688;23.366;2023-02-28T12:09:04;51755.97;;;-145.06;62.76
6530;BME280;3298;42.688;23.366;2023-02-28T12:11:48;51782.59;;;-145.06;63.74
6530;BME280;3298;42.688;23.366;2023-02-28T12:17:29;51755.97;;;-145.06;62.48
6530;BME280;3298;42.688;23.366;2023-02-28T12:20:08;51778.50;;;-145.06;63.53
6530;BME280;3298;42.688;23.366;2023-02-28T12:22:45;51780.53;;;-145.06;65.23
6530;BME280;3298;42.688;23.366;2023-02-28T12:25:30;51811.25;;;-145.06;65.84
6530;BME280;3298;42.688;23.366;2023-02-28T12:28:08;51774.41;;;-145.06;65.53
6530;BME280;3298;42.688;23.366;2023-02-28T12:30:37;51815.34;;;-145.06;64.39
6530;BME280;3298;42.688;23.366;2023-02-28T12:33:09;51766.22;;;-145.06;64.39
6530;BME280;3298;42.688;23.366;2023-02-28T12:35:49;51803.06;;;-145.06;64.00
6530;BME280;3298;42.688;23.366;2023-02-28T12:38:19;51770.31;;;-145.06;63.78
6530;BME280;3298;42.688;23.366;2023-02-28T12:40:52;51786.69;;;-145.06;64.81
6530;BME280;3298;42.688;23.366;2023-02-28T12:43:27;51782.59;;;-145.06;64.89
6530;BME280;3298;42.688;23.366;2023-02-28T12:45:57;51758.03;;;-145.06;65.78
6530;BME280;3298;42.688;23.366;2023-02-28T12:48:29;51801.00;;;-145.06;65.51
6530;BME280;3298;42.688;23.366;2023-02-28T12:50:58;51790.78;;;-145.06;66.04
6530;BME280;3298;42.688;23.366;2023-02-28T12:53:31;51786.69;;;-145.06;65.82
6530;BME280;3298;42.688;23.366;2023-02-28T12:56:09;51798.97;;;-145.06;66.98
6530;BME280;3298;42.688;23.366;2023-02-28T12:58:43;51803.06;;;-145.06;66.18
6530;BME280;3298;42.688;23.366;2023-02-28T13:01:27;51774.41;;;-145.06;63.66
6530;BME280;3298;42.688;23.366;2023-02-28T13:04:30;51807.16;;;-145.06;65.01
6530;BME280;3298;42.688;23.366;2023-02-28T13:07:14;51801.00;;;-145.06;65.36
6530;BME280;3298;42.688;23.366;2023-02-28T13:09:55;51807.16;;;-145.06;64.81